sensor_id;sensor_type;location;lat;lon;timestamp;pressure;altitude;pressure_sealevel;temperature
66180;BMP280;52986;44.028;20.466;2023-03-26T00:00:42;97876.84;;;7.37
66180;BMP280;52986;44.028;20.466;2023-03-26T00:03:12;97881.19;;;7.30
66180;BMP280;52986;44.028;20.466;2023-03-26T00:05:38;97879.97;;;7.15
66180;BMP280;52986;44.028;20.466;2023-03-26T00:08:05;97879.16;;;7.18
66180;BMP280;52986;44.028;20.466;2023-03-26T00:10:34;97876.09;;;7.20
66180;BMP280;52986;44.028;20.466;2023-03-26T00:13:00;97875.34;;;7.19
66180;BMP280;52986;44.028;20.466;2023-03-26T00:15:25;97875.69;;;7.21
66180;BMP280;52986;44.028;20.466;2023-03-26T00:17:51;97879.09;;;7.22
66180;BMP280;52986;44.028;20.466;2023-03-26T00:20:18;97886.94;;;7.29
66180;BMP280;52986;44.028;20.466;2023-03-26T00:22:44;97890.50;;;7.39
66180;BMP280;52986;44.028;20.466;2023-03-26T00:25:09;97889.19;;;7.47
66180;BMP280;52986;44.028;20.466;2023-03-26T00:27:35;97888.34;;;7.50
66180;BMP280;52986;44.028;20.466;2023-03-26T00:30:03;97887.53;;;7.53
66180;BMP280;52986;44.028;20.466;2023-03-26T00:32:29;97890.84;;;7.57
66180;BMP280;52986;44.028;20.466;2023-03-26T00:34:57;97891.50;;;7.61
66180;BMP280;52986;44.028;20.466;2023-03-26T00:37:23;97896.84;;;7.61
66180;BMP280;52986;44.028;20.466;2023-03-26T00:39:56;97895.09;;;7.71
66180;BMP280;52986;44.028;20.466;2023-03-26T00:42:27;97885.56;;;7.70
66180;BMP280;52986;44.028;20.466;2023-03-26T00:44:52;97889.53;;;7.65
66180;BMP280;52986;44.028;20.466;2023-03-26T00:47:19;97888.69;;;7.68
66180;BMP280;52986;44.028;20.466;2023-03-26T00:49:45;97889.66;;;7.74
66180;BMP280;52986;44.028;20.466;2023-03-26T00:52:13;97885.84;;;7.75
66180;BMP280;52986;44.028;20.466;2023-03-26T00:54:43;97896.50;;;7.75
66180;BMP280;52986;44.028;20.466;2023-03-26T00:57:09;97888.19;;;7.73
66180;BMP280;52986;44.028;20.466;2023-03-26T00:59:36;97885.94;;;7.72
66180;BMP280;52986;44.028;20.466;2023-03-26T01:02:01;97888.38;;;7.66
66180;BMP280;52986;44.028;20.466;2023-03-26T01:04:30;97889.53;;;7.65
66180;BMP280;52986;44.028;20.466;2023-03-26T01:07:01;97881.28;;;7.59
66180;BMP280;52986;44.028;20.466;2023-03-26T01:09:34;97879.78;;;7.58
66180;BMP280;52986;44.028;20.466;2023-03-26T01:12:02;97878.69;;;7.56
66180;BMP280;52986;44.028;20.466;2023-03-26T01:14:28;97880.34;;;7.50
66180;BMP280;52986;44.028;20.466;2023-03-26T01:17:00;97874.88;;;7.41
66180;BMP280;52986;44.028;20.466;2023-03-26T01:22:21;97865.00;;;7.38
66180;BMP280;52986;44.028;20.466;2023-03-26T01:24:48;97866.69;;;7.31
66180;BMP280;52986;44.028;20.466;2023-03-26T01:27:41;97862.78;;;7.36
66180;BMP280;52986;44.028;20.466;2023-03-26T01:33:19;97870.34;;;7.38
66180;BMP280;52986;44.028;20.466;2023-03-26T01:35:57;97891.25;;;7.39
66180;BMP280;52986;44.028;20.466;2023-03-26T01:41:44;97890.84;;;7.41
66180;BMP280;52986;44.028;20.466;2023-03-26T01:44:33;97894.66;;;7.23
66180;BMP280;52986;44.028;20.466;2023-03-26T01:47:00;97886.41;;;7.18
66180;BMP280;52986;44.028;20.466;2023-03-26T01:49:27;97888.09;;;7.28
66180;BMP280;52986;44.028;20.466;2023-03-26T01:51:54;97885.19;;;7.22
66180;BMP280;52986;44.028;20.466;2023-03-26T01:54:23;97875.53;;;7.28
66180;BMP280;52986;44.028;20.466;2023-03-26T01:57:10;97870.19;;;7.28
66180;BMP280;52986;44.028;20.466;2023-03-26T01:59:54;97866.53;;;7.22
66180;BMP280;52986;44.028;20.466;2023-03-26T02:02:25;97868.34;;;7.25
66180;BMP280;52986;44.028;20.466;2023-03-26T02:07:50;97860.25;;;7.13
66180;BMP280;52986;44.028;20.466;2023-03-26T02:12:47;97861.16;;;7.06
66180;BMP280;52986;44.028;20.466;2023-03-26T02:15:12;97862.25;;;7.09
66180;BMP280;52986;44.028;20.466;2023-03-26T02:17:39;97870.59;;;7.11
66180;BMP280;52986;44.028;20.466;2023-03-26T02:20:09;97874.53;;;7.02
66180;BMP280;52986;44.028;20.466;2023-03-26T02:22:36;97887.09;;;7.02
66180;BMP280;52986;44.028;20.466;2023-03-26T02:25:09;97884.84;;;7.00
66180;BMP280;52986;44.028;20.466;2023-03-26T02:27:36;97884.84;;;7.00
66180;BMP280;52986;44.028;20.466;2023-03-26T02:30:03;97892.78;;;7.04
66180;BMP280;52986;44.028;20.466;2023-03-26T02:32:29;97888.97;;;7.05
66180;BMP280;52986;44.028;20.466;2023-03-26T02:34:54;97892.94;;;6.97
66180;BMP280;52986;44.028;20.466;2023-03-26T02:37:19;97896.25;;;7.01
66180;BMP280;52986;44.028;20.466;2023-03-26T02:39:45;97904.13;;;7.08
66180;BMP280;52986;44.028;20.466;2023-03-26T02:42:11;97900.25;;;6.93
66180;BMP280;52986;44.028;20.466;2023-03-26T02:44:36;97898.59;;;6.99
66180;BMP280;52986;44.028;20.466;2023-03-26T02:47:04;97903.25;;;6.95
66180;BMP280;52986;44.028;20.466;2023-03-26T02:49:30;97908.41;;;6.86
66180;BMP280;52986;44.028;20.466;2023-03-26T02:51:55;97909.00;;;6.73
66180;BMP280;52986;44.028;20.466;2023-03-26T02:54:21;97909.66;;;6.78
66180;BMP280;52986;44.028;20.466;2023-03-26T02:56:47;97914.31;;;6.73
66180;BMP280;52986;44.028;20.466;2023-03-26T02:59:12;97918.09;;;6.72
66180;BMP280;52986;44.028;20.466;2023-03-26T03:01:39;97917.31;;;6.76
66180;BMP280;52986;44.028;20.466;2023-03-26T03:04:08;97924.13;;;6.77
66180;BMP280;52986;44.028;20.466;2023-03-26T03:06:34;97929.47;;;6.77
66180;BMP280;52986;44.028;20.466;2023-03-26T03:08:59;97911.16;;;6.79
66180;BMP280;52986;44.028;20.466;2023-03-26T03:11:28;97909.31;;;6.76
66180;BMP280;52986;44.028;20.466;2023-03-26T03:13:54;97909.81;;;6.70
66180;BMP280;52986;44.028;20.466;2023-03-26T03:16:19;97907.28;;;6.63
66180;BMP280;52986;44.028;20.466;2023-03-26T03:18:45;97907.06;;;6.54
66180;BMP280;52986;44.028;20.466;2023-03-26T03:21:11;97907.28;;;6.63
66180;BMP280;52986;44.028;20.466;2023-03-26T03:23:37;97904.66;;;6.60
66180;BMP280;52986;44.028;20.466;2023-03-26T03:26:02;97908.31;;;6.69
66180;BMP280;52986;44.028;20.466;2023-03-26T03:28:28;97908.72;;;6.68
66180;BMP280;52986;44.028;20.466;2023-03-26T03:30:54;97920.25;;;6.61
66180;BMP280;52986;44.028;20.466;2023-03-26T03:33:22;97916.91;;;6.57
66180;BMP280;52986;44.028;20.466;2023-03-26T03:35:48;97920.19;;;6.65
66180;BMP280;52986;44.028;20.466;2023-03-26T03:38:15;97917.25;;;6.59
66180;BMP280;52986;44.028;20.466;2023-03-26T03:40:41;97922.28;;;6.54
66180;BMP280;52986;44.028;20.466;2023-03-26T03:43:07;97916.78;;;6.44
66180;BMP280;52986;44.028;20.466;2023-03-26T03:45:32;97919.78;;;6.47
66180;BMP280;52986;44.028;20.466;2023-03-26T03:47:58;97917.09;;;6.47
66180;BMP280;52986;44.028;20.466;2023-03-26T03:50:23;97913.00;;;6.42
66180;BMP280;52986;44.028;20.466;2023-03-26T03:52:49;97911.19;;;6.35
66180;BMP280;52986;44.028;20.466;2023-03-26T03:55:15;97921.19;;;6.31
66180;BMP280;52986;44.028;20.466;2023-03-26T03:57:40;97910.44;;;6.35
66180;BMP280;52986;44.028;20.466;2023-03-26T04:00:06;97907.19;;;6.27
66180;BMP280;52986;44.028;20.466;2023-03-26T04:02:35;97912.28;;;6.18
66180;BMP280;52986;44.028;20.466;2023-03-26T04:05:01;97914.19;;;6.18
66180;BMP280;52986;44.028;20.466;2023-03-26T04:07:28;97911.59;;;6.14
66180;BMP280;52986;44.028;20.466;2023-03-26T04:10:00;97907.81;;;6.11
66180;BMP280;52986;44.028;20.466;2023-03-26T04:12:27;97908.78;;;6.01
66180;BMP280;52986;44.028;20.466;2023-03-26T04:14:53;97917.41;;;6.05
66180;BMP280;52986;44.028;20.466;2023-03-26T04:17:18;97924.75;;;5.98
66180;BMP280;52986;44.028;20.466;2023-03-26T04:19:46;97924.56;;;5.89
66180;BMP280;52986;44.028;20.466;2023-03-26T04:22:12;97932.44;;;5.92
66180;BMP280;52986;44.028;20.466;2023-03-26T04:24:37;97932.13;;;5.90
66180;BMP280;52986;44.028;20.466;2023-03-26T04:27:05;97939.63;;;5.95
66180;BMP280;52986;44.028;20.466;2023-03-26T04:29:35;97932.44;;;5.92
66180;BMP280;52986;44.028;20.466;2023-03-26T04:32:02;97927.97;;;5.89
66180;BMP280;52986;44.028;20.466;2023-03-26T04:34:32;97925.22;;;5.93
66180;BMP280;52986;44.028;20.466;2023-03-26T04:37:00;97925.31;;;5.89
66180;BMP280;52986;44.028;20.466;2023-03-26T04:39:26;97923.44;;;5.86
66180;BMP280;52986;44.028;20.466;2023-03-26T04:42:03;97928.75;;;5.86
66180;BMP280;52986;44.028;20.466;2023-03-26T04:44:29;97927.13;;;5.92
66180;BMP280;52986;44.028;20.466;2023-03-26T04:46:55;97931.81;;;5.84
66180;BMP280;52986;44.028;20.466;2023-03-26T04:49:21;97926.09;;;5.86
66180;BMP280;52986;44.028;20.466;2023-03-26T04:51:46;97932.44;;;5.92
66180;BMP280;52986;44.028;20.466;2023-03-26T04:54:13;97943.72;;;6.00
66180;BMP280;52986;44.028;20.466;2023-03-26T04:56:52;97956.03;;;5.90
66180;BMP280;52986;44.028;20.466;2023-03-26T04:59:30;97953.41;;;5.86
66180;BMP280;52986;44.028;20.466;2023-03-26T05:01:59;97953.47;;;5.83
66180;BMP280;52986;44.028;20.466;2023-03-26T05:04:26;97958.56;;;5.74
66180;BMP280;52986;44.028;20.466;2023-03-26T05:06:55;97965.31;;;5.78
66180;BMP280;52986;44.028;20.466;2023-03-26T05:09:23;97964.97;;;5.76
66180;BMP280;52986;44.028;20.466;2023-03-26T05:11:48;97960.31;;;5.84
66180;BMP280;52986;44.028;20.466;2023-03-26T05:14:15;97971.28;;;5.86
66180;BMP280;52986;44.028;20.466;2023-03-26T05:16:40;97969.00;;;5.88
66180;BMP280;52986;44.028;20.466;2023-03-26T05:19:06;97970.63;;;5.78
66180;BMP280;52986;44.028;20.466;2023-03-26T05:21:33;97964.19;;;5.76
66180;BMP280;52986;44.028;20.466;2023-03-26T05:23:58;97961.53;;;5.76
66180;BMP280;52986;44.028;20.466;2023-03-26T05:26:23;97964.47;;;5.85
66180;BMP280;52986;44.028;20.466;2023-03-26T05:28:49;97966.59;;;5.94
66180;BMP280;52986;44.028;20.466;2023-03-26T05:31:17;97970.28;;;6.03
66180;BMP280;52986;44.028;20.466;2023-03-26T05:33:45;97969.03;;;6.08
66180;BMP280;52986;44.028;20.466;2023-03-26T05:36:11;97984.38;;;6.00
66180;BMP280;52986;44.028;20.466;2023-03-26T05:38:41;97978.81;;;6.14
66180;BMP280;52986;44.028;20.466;2023-03-26T05:41:08;97980.19;;;6.23
66180;BMP280;52986;44.028;20.466;2023-03-26T05:43:34;97974.38;;;6.31
66180;BMP280;52986;44.028;20.466;2023-03-26T05:46:00;97983.44;;;6.34
66180;BMP280;52986;44.028;20.466;2023-03-26T05:48:26;97988.66;;;6.41
66180;BMP280;52986;44.028;20.466;2023-03-26T05:50:54;97984.66;;;6.53
66180;BMP280;52986;44.028;20.466;2023-03-26T05:53:20;97987.41;;;6.69
66180;BMP280;52986;44.028;20.466;2023-03-26T05:55:48;97994.09;;;6.77
66180;BMP280;52986;44.028;20.466;2023-03-26T05:58:27;97996.63;;;6.84
66180;BMP280;52986;44.028;20.466;2023-03-26T06:01:01;97983.88;;;6.95
66180;BMP280;52986;44.028;20.466;2023-03-26T06:03:46;97982.56;;;7.23
66180;BMP280;52986;44.028;20.466;2023-03-26T06:06:16;97987.47;;;7.25
66180;BMP280;52986;44.028;20.466;2023-03-26T06:08:44;97989.28;;;7.48
66180;BMP280;52986;44.028;20.466;2023-03-26T06:11:15;97991.63;;;7.62
66180;BMP280;52986;44.028;20.466;2023-03-26T06:13:41;97996.25;;;7.78
66180;BMP280;52986;44.028;20.466;2023-03-26T06:16:12;97994.81;;;7.73
66180;BMP280;52986;44.028;20.466;2023-03-26T06:18:38;97992.00;;;7.97
66180;BMP280;52986;44.028;20.466;2023-03-26T06:21:04;97993.50;;;7.98
66180;BMP280;52986;44.028;20.466;2023-03-26T06:23:30;97984.09;;;8.09
66180;BMP280;52986;44.028;20.466;2023-03-26T06:25:56;97986.38;;;8.23
66180;BMP280;52986;44.028;20.466;2023-03-26T06:28:22;97976.72;;;8.30
66180;BMP280;52986;44.028;20.466;2023-03-26T06:30:47;97980.44;;;8.48
66180;BMP280;52986;44.028;20.466;2023-03-26T06:33:13;97979.44;;;8.42
66180;BMP280;52986;44.028;20.466;2023-03-26T06:35:38;97987.63;;;8.35
66180;BMP280;52986;44.028;20.466;2023-03-26T06:38:05;97994.00;;;8.25
66180;BMP280;52986;44.028;20.466;2023-03-26T06:40:32;97993.78;;;8.48
66180;BMP280;52986;44.028;20.466;2023-03-26T06:42:57;97998.03;;;8.75
66180;BMP280;52986;44.028;20.466;2023-03-26T06:45:25;97998.50;;;8.86
66180;BMP280;52986;44.028;20.466;2023-03-26T06:47:51;97992.94;;;9.22
66180;BMP280;52986;44.028;20.466;2023-03-26T06:50:16;97994.22;;;9.43
66180;BMP280;52986;44.028;20.466;2023-03-26T06:52:41;97997.25;;;9.58
66180;BMP280;52986;44.028;20.466;2023-03-26T06:55:07;97997.34;;;9.67
66180;BMP280;52986;44.028;20.466;2023-03-26T06:57:34;97990.91;;;9.77
66180;BMP280;52986;44.028;20.466;2023-03-26T07:00:00;97992.41;;;10.25
66180;BMP280;52986;44.028;20.466;2023-03-26T07:02:26;98000.19;;;10.32
66180;BMP280;52986;44.028;20.466;2023-03-26T07:04:51;97998.75;;;10.41
66180;BMP280;52986;44.028;20.466;2023-03-26T07:07:17;97998.09;;;10.49
66180;BMP280;52986;44.028;20.466;2023-03-26T07:09:46;98011.13;;;11.44
66180;BMP280;52986;44.028;20.466;2023-03-26T07:12:12;98004.13;;;13.77
66180;BMP280;52986;44.028;20.466;2023-03-26T07:14:38;98002.94;;;14.55
66180;BMP280;52986;44.028;20.466;2023-03-26T07:17:03;97997.19;;;15.88
66180;BMP280;52986;44.028;20.466;2023-03-26T07:19:28;97993.38;;;16.52
66180;BMP280;52986;44.028;20.466;2023-03-26T07:21:54;97989.09;;;16.65
66180;BMP280;52986;44.028;20.466;2023-03-26T07:24:20;97986.22;;;17.23
66180;BMP280;52986;44.028;20.466;2023-03-26T07:29:48;97982.13;;;18.26
66180;BMP280;52986;44.028;20.466;2023-03-26T07:45:29;97971.28;;;22.07
66180;BMP280;52986;44.028;20.466;2023-03-26T07:47:58;97956.84;;;22.38
66180;BMP280;52986;44.028;20.466;2023-03-26T07:50:24;97961.31;;;22.68
66180;BMP280;52986;44.028;20.466;2023-03-26T07:52:50;97952.16;;;22.39
66180;BMP280;52986;44.028;20.466;2023-03-26T07:55:16;97940.63;;;23.74
66180;BMP280;52986;44.028;20.466;2023-03-26T07:58:00;97946.72;;;23.26
66180;BMP280;52986;44.028;20.466;2023-03-26T08:00:58;97941.97;;;24.02
66180;BMP280;52986;44.028;20.466;2023-03-26T08:06:17;97942.81;;;25.71
66180;BMP280;52986;44.028;20.466;2023-03-26T08:09:07;97938.41;;;25.60
66180;BMP280;52986;44.028;20.466;2023-03-26T08:22:25;97929.34;;;26.43
66180;BMP280;52986;44.028;20.466;2023-03-26T08:27:50;97935.97;;;27.13
66180;BMP280;52986;44.028;20.466;2023-03-26T08:30:20;97933.75;;;27.19
66180;BMP280;52986;44.028;20.466;2023-03-26T08:32:54;97922.03;;;27.18
66180;BMP280;52986;44.028;20.466;2023-03-26T08:35:20;97915.31;;;26.16
66180;BMP280;52986;44.028;20.466;2023-03-26T08:37:46;97913.72;;;25.91
66180;BMP280;52986;44.028;20.466;2023-03-26T08:40:16;97907.44;;;27.01
66180;BMP280;52986;44.028;20.466;2023-03-26T08:43:18;97898.81;;;27.54
66180;BMP280;52986;44.028;20.466;2023-03-26T08:48:59;97901.53;;;26.79
66180;BMP280;52986;44.028;20.466;2023-03-26T09:30:12;97872.28;;;28.98
66180;BMP280;52986;44.028;20.466;2023-03-26T09:46:12;97867.16;;;30.37
66180;BMP280;52986;44.028;20.466;2023-03-26T09:52:09;97865.34;;;29.72
66180;BMP280;52986;44.028;20.466;2023-03-26T10:03:32;97834.06;;;27.53
66180;BMP280;52986;44.028;20.466;2023-03-26T10:17:40;97826.31;;;28.74
66180;BMP280;52986;44.028;20.466;2023-03-26T10:20:48;97824.91;;;27.85
66180;BMP280;52986;44.028;20.466;2023-03-26T10:33:48;97786.69;;;24.10
66180;BMP280;52986;44.028;20.466;2023-03-26T10:36:36;97790.31;;;24.48
66180;BMP280;52986;44.028;20.466;2023-03-26T10:45:23;97760.75;;;22.97
66180;BMP280;52986;44.028;20.466;2023-03-26T10:54:08;97749.66;;;23.44
66180;BMP280;52986;44.028;20.466;2023-03-26T10:56:39;97755.50;;;23.77
66180;BMP280;52986;44.028;20.466;2023-03-26T10:59:07;97769.22;;;25.02
66180;BMP280;52986;44.028;20.466;2023-03-26T11:02:04;97743.88;;;25.79
66180;BMP280;52986;44.028;20.466;2023-03-26T11:07:53;97766.28;;;24.77
66180;BMP280;52986;44.028;20.466;2023-03-26T11:15:37;97713.84;;;23.35
66180;BMP280;52986;44.028;20.466;2023-03-26T11:21:10;97704.69;;;23.25
66180;BMP280;52986;44.028;20.466;2023-03-26T11:34:12;97727.50;;;30.99
66180;BMP280;52986;44.028;20.466;2023-03-26T11:36:44;97717.88;;;31.00
66180;BMP280;52986;44.028;20.466;2023-03-26T11:39:14;97709.75;;;31.80
66180;BMP280;52986;44.028;20.466;2023-03-26T11:41:42;97694.88;;;31.75
66180;BMP280;52986;44.028;20.466;2023-03-26T11:44:18;97699.25;;;31.90
66180;BMP280;52986;44.028;20.466;2023-03-26T11:46:47;97702.97;;;31.27
66180;BMP280;52986;44.028;20.466;2023-03-26T11:49:16;97694.06;;;32.79
66180;BMP280;52986;44.028;20.466;2023-03-26T11:51:45;97695.03;;;32.35
66180;BMP280;52986;44.028;20.466;2023-03-26T11:54:11;97692.25;;;32.24
66180;BMP280;52986;44.028;20.466;2023-03-26T12:00:02;97663.59;;;33.44
66180;BMP280;52986;44.028;20.466;2023-03-26T12:02:37;97651.97;;;33.61
66180;BMP280;52986;44.028;20.466;2023-03-26T12:07:52;97650.28;;;31.48
66180;BMP280;52986;44.028;20.466;2023-03-26T12:10:37;97616.91;;;30.90
66180;BMP280;52986;44.028;20.466;2023-03-26T12:15:46;97575.97;;;25.98
66180;BMP280;52986;44.028;20.466;2023-03-26T12:18:38;97568.63;;;24.66
66180;BMP280;52986;44.028;20.466;2023-03-26T12:21:07;97571.16;;;23.44
66180;BMP280;52986;44.028;20.466;2023-03-26T12:23:50;97558.31;;;22.88
66180;BMP280;52986;44.028;20.466;2023-03-26T12:26:20;97548.03;;;22.52
66180;BMP280;52986;44.028;20.466;2023-03-26T12:28:54;97545.31;;;22.11
66180;BMP280;52986;44.028;20.466;2023-03-26T12:31:20;97550.41;;;21.46
66180;BMP280;52986;44.028;20.466;2023-03-26T12:34:14;97537.75;;;21.22
66180;BMP280;52986;44.028;20.466;2023-03-26T12:36:46;97530.94;;;21.29
66180;BMP280;52986;44.028;20.466;2023-03-26T12:41:56;97516.50;;;20.94
66180;BMP280;52986;44.028;20.466;2023-03-26T12:44:28;97503.81;;;20.71
66180;BMP280;52986;44.028;20.466;2023-03-26T12:47:14;97500.34;;;20.70
66180;BMP280;52986;44.028;20.466;2023-03-26T12:49:41;97495.03;;;20.65
66180;BMP280;52986;44.028;20.466;2023-03-26T12:52:33;97486.88;;;20.33
66180;BMP280;52986;44.028;20.466;2023-03-26T13:02:53;97456.38;;;20.21
66180;BMP280;52986;44.028;20.466;2023-03-26T13:16:00;97434.56;;;19.44
66180;BMP280;52986;44.028;20.466;2023-03-26T13:18:55;97434.69;;;19.51
66180;BMP280;52986;44.028;20.466;2023-03-26T13:35:45;97393.19;;;19.70
66180;BMP280;52986;44.028;20.466;2023-03-26T13:39:02;97390.72;;;19.53
66180;BMP280;52986;44.028;20.466;2023-03-26T13:46:59;97373.31;;;19.62
66180;BMP280;52986;44.028;20.466;2023-03-26T13:49:30;97370.53;;;19.48
66180;BMP280;52986;44.028;20.466;2023-03-26T13:52:09;97356.34;;;19.56
66180;BMP280;52986;44.028;20.466;2023-03-26T13:57:24;97364.59;;;19.31
66180;BMP280;52986;44.028;20.466;2023-03-26T14:02:42;97356.06;;;19.40
66180;BMP280;52986;44.028;20.466;2023-03-26T14:10:27;97337.59;;;19.39
66180;BMP280;52986;44.028;20.466;2023-03-26T14:15:53;97322.47;;;19.43
66180;BMP280;52986;44.028;20.466;2023-03-26T14:26:46;97309.84;;;19.59
66180;BMP280;52986;44.028;20.466;2023-03-26T14:29:37;97312.44;;;19.51
66180;BMP280;52986;44.028;20.466;2023-03-26T14:32:31;97304.22;;;19.57
66180;BMP280;52986;44.028;20.466;2023-03-26T14:41:12;97289.75;;;19.49
66180;BMP280;52986;44.028;20.466;2023-03-26T14:44:10;97285.69;;;19.56
66180;BMP280;52986;44.028;20.466;2023-03-26T14:47:11;97282.28;;;19.68
66180;BMP280;52986;44.028;20.466;2023-03-26T14:52:47;97283.03;;;19.95
66180;BMP280;52986;44.028;20.466;2023-03-26T15:14:09;97246.13;;;19.86
66180;BMP280;52986;44.028;20.466;2023-03-26T15:27:56;97228.13;;;19.57
66180;BMP280;52986;44.028;20.466;2023-03-26T15:33:19;97217.34;;;19.51
66180;BMP280;52986;44.028;20.466;2023-03-26T15:41:37;97213.72;;;19.17
66180;BMP280;52986;44.028;20.466;2023-03-26T15:45:00;97212.84;;;19.09
66180;BMP280;52986;44.028;20.466;2023-03-26T15:47:25;97212.03;;;19.14
66180;BMP280;52986;44.028;20.466;2023-03-26T15:50:19;97209.84;;;18.94
66180;BMP280;52986;44.028;20.466;2023-03-26T15:53:11;97202.25;;;18.73
66180;BMP280;52986;44.028;20.466;2023-03-26T15:55:51;97197.28;;;18.59
66180;BMP280;52986;44.028;20.466;2023-03-26T16:01:29;97179.38;;;18.31
66180;BMP280;52986;44.028;20.466;2023-03-26T16:06:58;97180.16;;;18.07
66180;BMP280;52986;44.028;20.466;2023-03-26T16:10:08;97174.97;;;18.09
66180;BMP280;52986;44.028;20.466;2023-03-26T16:15:31;97172.72;;;17.89
66180;BMP280;52986;44.028;20.466;2023-03-26T16:18:19;97180.19;;;17.83
66180;BMP280;52986;44.028;20.466;2023-03-26T16:20:51;97177.81;;;17.74
66180;BMP280;52986;44.028;20.466;2023-03-26T16:23:26;97173.63;;;17.73
66180;BMP280;52986;44.028;20.466;2023-03-26T16:33:56;97154.41;;;17.52
66180;BMP280;52986;44.028;20.466;2023-03-26T16:36:29;97157.13;;;17.52
66180;BMP280;52986;44.028;20.466;2023-03-26T16:44:11;97140.13;;;17.27
66180;BMP280;52986;44.028;20.466;2023-03-26T16:46:52;97127.13;;;17.20
66180;BMP280;52986;44.028;20.466;2023-03-26T17:08:37;97126.56;;;15.98
66180;BMP280;52986;44.028;20.466;2023-03-26T17:20:02;97110.00;;;15.61
66180;BMP280;52986;44.028;20.466;2023-03-26T17:41:07;97117.13;;;15.64
66180;BMP280;52986;44.028;20.466;2023-03-26T17:46:33;97100.72;;;15.28
66180;BMP280;52986;44.028;20.466;2023-03-26T17:54:49;97115.69;;;14.79
66180;BMP280;52986;44.028;20.466;2023-03-26T17:59:49;97108.03;;;14.55
66180;BMP280;52986;44.028;20.466;2023-03-26T18:02:29;97109.97;;;14.43
66180;BMP280;52986;44.028;20.466;2023-03-26T18:04:56;97110.88;;;14.29
66180;BMP280;52986;44.028;20.466;2023-03-26T18:10:10;97116.19;;;14.07
66180;BMP280;52986;44.028;20.466;2023-03-26T18:18:07;97129.00;;;13.75
66180;BMP280;52986;44.028;20.466;2023-03-26T18:20:35;97130.88;;;13.63
66180;BMP280;52986;44.028;20.466;2023-03-26T18:23:10;97129.56;;;13.53
66180;BMP280;52986;44.028;20.466;2023-03-26T18:25:37;97119.22;;;13.46
66180;BMP280;52986;44.028;20.466;2023-03-26T18:28:05;97118.22;;;13.43
66180;BMP280;52986;44.028;20.466;2023-03-26T18:30:31;97109.63;;;13.39
66180;BMP280;52986;44.028;20.466;2023-03-26T18:33:01;97110.34;;;13.34
66180;BMP280;52986;44.028;20.466;2023-03-26T18:35:41;97105.81;;;13.20
66180;BMP280;52986;44.028;20.466;2023-03-26T18:38:12;97095.25;;;13.11
66180;BMP280;52986;44.028;20.466;2023-03-26T18:40:42;97090.78;;;13.02
66180;BMP280;52986;44.028;20.466;2023-03-26T18:43:19;97094.16;;;12.97
66180;BMP280;52986;44.028;20.466;2023-03-26T18:45:49;97090.38;;;12.89
66180;BMP280;52986;44.028;20.466;2023-03-26T18:48:20;97101.34;;;12.86
66180;BMP280;52986;44.028;20.466;2023-03-26T18:50:52;97088.69;;;12.92
66180;BMP280;52986;44.028;20.466;2023-03-26T18:53:20;97088.34;;;12.78
66180;BMP280;52986;44.028;20.466;2023-03-26T18:55:48;97091.78;;;12.59
66180;BMP280;52986;44.028;20.466;2023-03-26T18:58:29;97084.41;;;12.53
66180;BMP280;52986;44.028;20.466;2023-03-26T19:01:01;97077.28;;;12.50
66180;BMP280;52986;44.028;20.466;2023-03-26T19:03:29;97062.66;;;12.51
66180;BMP280;52986;44.028;20.466;2023-03-26T19:05:56;97071.38;;;12.46
66180;BMP280;52986;44.028;20.466;2023-03-26T19:08:23;97071.75;;;12.34
66180;BMP280;52986;44.028;20.466;2023-03-26T19:10:51;97075.03;;;12.23
66180;BMP280;52986;44.028;20.466;2023-03-26T19:13:19;97070.28;;;12.12
66180;BMP280;52986;44.028;20.466;2023-03-26T19:15:46;97074.28;;;12.02
66180;BMP280;52986;44.028;20.466;2023-03-26T19:18:19;97063.22;;;11.95
66180;BMP280;52986;44.028;20.466;2023-03-26T19:20:52;97062.75;;;11.76
66180;BMP280;52986;44.028;20.466;2023-03-26T19:23:20;97060.91;;;11.67
66180;BMP280;52986;44.028;20.466;2023-03-26T19:25:49;97060.91;;;11.67
66180;BMP280;52986;44.028;20.466;2023-03-26T19:28:22;97049.25;;;11.70
66180;BMP280;52986;44.028;20.466;2023-03-26T19:30:55;97043.97;;;11.76
66180;BMP280;52986;44.028;20.466;2023-03-26T19:33:22;97041.63;;;11.83
66180;BMP280;52986;44.028;20.466;2023-03-26T19:35:58;97042.63;;;11.86
66180;BMP280;52986;44.028;20.466;2023-03-26T19:38:27;97032.53;;;11.81
66180;BMP280;52986;44.028;20.466;2023-03-26T19:40:56;97029.50;;;11.73
66180;BMP280;52986;44.028;20.466;2023-03-26T19:43:23;97025.34;;;11.72
66180;BMP280;52986;44.028;20.466;2023-03-26T19:45:50;97008.72;;;11.68
66180;BMP280;52986;44.028;20.466;2023-03-26T19:48:19;96995.31;;;11.48
66180;BMP280;52986;44.028;20.466;2023-03-26T19:51:02;96996.16;;;11.39
66180;BMP280;52986;44.028;20.466;2023-03-26T19:53:35;96996.53;;;11.32
66180;BMP280;52986;44.028;20.466;2023-03-26T19:58:34;96987.72;;;11.46
66180;BMP280;52986;44.028;20.466;2023-03-26T20:01:01;96985.31;;;11.48
66180;BMP280;52986;44.028;20.466;2023-03-26T20:03:37;96972.03;;;11.39
66180;BMP280;52986;44.028;20.466;2023-03-26T20:06:03;96961.31;;;11.39
66180;BMP280;52986;44.028;20.466;2023-03-26T20:08:29;96967.66;;;11.42
66180;BMP280;52986;44.028;20.466;2023-03-26T20:10:55;96957.06;;;11.33
66180;BMP280;52986;44.028;20.466;2023-03-26T20:13:21;96965.03;;;11.27
66180;BMP280;52986;44.028;20.466;2023-03-26T20:15:54;96951.75;;;11.18
66180;BMP280;52986;44.028;20.466;2023-03-26T20:18:21;96938.97;;;11.13
66180;BMP280;52986;44.028;20.466;2023-03-26T20:20:48;96944.63;;;11.15
66180;BMP280;52986;44.028;20.466;2023-03-26T20:23:14;96951.88;;;11.09
66180;BMP280;52986;44.028;20.466;2023-03-26T20:25:50;96945.19;;;11.04
66180;BMP280;52986;44.028;20.466;2023-03-26T20:28:18;96935.22;;;11.05
66180;BMP280;52986;44.028;20.466;2023-03-26T20:30:45;96949.00;;;10.98
66180;BMP280;52986;44.028;20.466;2023-03-26T20:33:18;96931.19;;;10.94
66180;BMP280;52986;44.028;20.466;2023-03-26T20:35:44;96934.72;;;10.86
66180;BMP280;52986;44.028;20.466;2023-03-26T20:38:10;96932.59;;;10.75
66180;BMP280;52986;44.028;20.466;2023-03-26T20:40:37;96917.81;;;10.65
66180;BMP280;52986;44.028;20.466;2023-03-26T20:43:03;96919.56;;;10.68